MSC Federica — HPQE — position and weather

sailwx.info

Track history (hours):
 
Tides and Currents Weather Stations Pressure Air Temp Water Temp Dewpoint Dewpoint Depression Visibility Wind Speed Wind Dir Waves Ship Positions

MSC Federica

Last reported at 2017-Aug-04 16:06 UTC. Time now 2017-Nov-21 17:45 UTC.
Position N 25°50' E 057°01'.
Warning: this ship's position is months out of date.

Length 294 m; draft 11.2 m.

Type: Ship (hazmat cat A). MMSI: 357363000.

Date/timePositionNaut miles runAvg speedWind from/ knotsBaromVisibWave heightAir tempDewpointWater temp
2017-Aug-04 16:06N 25°50' E 057°01'217.0
2017-Aug-04 16:00N 25°51' E 056°60'917.1
2017-Aug-04 15:30N 25°58' E 056°54'916.7
2017-Aug-04 14:59N 26°05' E 056°48'1615.8
2017-Aug-04 14:00N 26°20' E 056°42'816.2
2017-Aug-04 13:30N 26°26' E 056°37'815.7
2017-Aug-04 13:01N 26°33' E 056°32'916.1
2017-Aug-04 12:26N 26°31' E 056°22'717.3
2017-Aug-04 12:00N 26°27' E 056°15'917.7
2017-Aug-04 11:30N 26°23' E 056°06'1117.0
2017-Aug-04 10:52N 26°18' E 055°55'  
Track history (hours):
 
Tides and Currents Weather Stations Pressure Air Temp Water Temp Dewpoint Dewpoint Depression Visibility Wind Speed Wind Dir Waves Ship Positions

MSC Federica

Last reported at 2017-Aug-04 16:06 UTC. Time now 2017-Nov-21 17:45 UTC.
Position N 25°50' E 057°01'.
Warning: this ship's position is months out of date.

Length 294 m; draft 11.2 m.

Type: Ship (hazmat cat A). MMSI: 357363000.

Date/timePositionNaut miles runAvg speedWind from/ knotsBaromVisibWave heightAir tempDewpointWater temp
2017-Aug-04 16:06N 25°50' E 057°01'217.0
2017-Aug-04 16:00N 25°51' E 056°60'917.1
2017-Aug-04 15:30N 25°58' E 056°54'916.7
2017-Aug-04 14:59N 26°05' E 056°48'1615.8
2017-Aug-04 14:00N 26°20' E 056°42'816.2
2017-Aug-04 13:30N 26°26' E 056°37'815.7
2017-Aug-04 13:01N 26°33' E 056°32'916.1
2017-Aug-04 12:26N 26°31' E 056°22'717.3
2017-Aug-04 12:00N 26°27' E 056°15'917.7
2017-Aug-04 11:30N 26°23' E 056°06'1117.0
2017-Aug-04 10:52N 26°18' E 055°55'  

Dump ship's entire track history